Time,TemperatureF,DewpointF,PressureIn,WindDirection,WindDirectionDegrees,WindSpeedMPH,WindSpeedGustMPH,Humidity,HourlyPrecipIn,Conditions,Clouds,dailyrainin,SolarRadiationWatts/m^2,SoftwareType,DateUTC
2013-09-15 00:07:00,50.7,46.0,30.13,WNW,287,0.0,0.0,85,0.00,,,0.00,0,weatherlink.com 1.10,2013-09-15 04:07:00,
2013-09-15 00:22:00,50.3,46.0,30.13,WNW,287,0.0,0.0,86,0.00,,,0.00,0,weatherlink.com 1.10,2013-09-15 04:22:00,
2013-09-15 00:37:00,49.9,46.0,30.13,WNW,287,0.0,0.0,86,0.00,,,0.00,0,weatherlink.com 1.10,2013-09-15 04:37:00,
2013-09-15 00:52:00,49.5,46.0,30.13,WNW,287,0.0,1.0,87,0.00,,,0.00,0,weatherlink.com 1.10,2013-09-15 04:52:00,
2013-09-15 01:07:00,49.1,46.0,30.13,WNW,287,0.0,1.0,88,0.00,,,0.00,0,weatherlink.com 1.10,2013-09-15 05:07:00,
2013-09-15 01:22:00,48.9,46.0,30.14,WNW,287,0.0,1.0,88,0.00,,,0.00,0,weatherlink.com 1.10,2013-09-15 05:22:00,
2013-09-15 01:37:00,48.5,46.0,30.14,WNW,287,0.0,1.0,89,0.00,,,0.00,0,weatherlink.com 1.10,2013-09-15 05:37:00,
2013-09-15 01:52:00,48.1,45.0,30.14,WNW,287,0.0,0.0,89,0.00,,,0.00,0,weatherlink.com 1.10,2013-09-15 05:52:00,
2013-09-15 02:07:00,47.9,45.0,30.14,WNW,287,0.0,0.0,90,0.00,,,0.00,0,weatherlink.com 1.10,2013-09-15 06:07:00,
2013-09-15 02:22:00,47.6,45.0,30.14,WNW,287,0.0,0.0,90,0.00,,,0.00,0,weatherlink.com 1.10,2013-09-15 06:22:00,
2013-09-15 02:37:00,47.3,45.0,30.14,WNW,287,0.0,0.0,91,0.00,,,0.00,0,weatherlink.com 1.10,2013-09-15 06:37:00,
2013-09-15 02:52:00,47.0,45.0,30.14,WNW,287,0.0,0.0,91,0.00,,,0.00,0,weatherlink.com 1.10,2013-09-15 06:52:00,
2013-09-15 03:07:00,46.7,45.0,30.14,WNW,287,0.0,1.0,92,0.00,,,0.00,0,weatherlink.com 1.10,2013-09-15 07:07:00,
2013-09-15 03:22:00,46.4,44.0,30.14,WNW,287,0.0,0.0,92,0.00,,,0.00,0,weatherlink.com 1.10,2013-09-15 07:22:00,
2013-09-15 03:37:00,46.0,44.0,30.15,WNW,287,0.0,0.0,92,0.00,,,0.00,0,weatherlink.com 1.10,2013-09-15 07:37:00,
2013-09-15 03:52:00,45.5,43.0,30.16,WNW,287,0.0,0.0,92,0.00,,,0.00,0,weatherlink.com 1.10,2013-09-15 07:52:00,
2013-09-15 04:07:00,45.3,43.0,30.16,WNW,287,0.0,1.0,93,0.00,,,0.00,0,weatherlink.com 1.10,2013-09-15 08:07:00,
2013-09-15 04:22:00,45.3,43.0,30.16,WNW,287,0.0,0.0,93,0.00,,,0.00,0,weatherlink.com 1.10,2013-09-15 08:22:00,
2013-09-15 04:37:00,45.2,43.0,30.16,WNW,287,0.0,0.0,93,0.00,,,0.00,0,weatherlink.com 1.10,2013-09-15 08:37:00,
2013-09-15 04:52:00,44.9,43.0,30.16,WNW,287,0.0,0.0,93,0.00,,,0.00,0,weatherlink.com 1.10,2013-09-15 08:52:00,
2013-09-15 05:07:00,44.6,43.0,30.16,WNW,287,0.0,0.0,93,0.00,,,0.00,0,weatherlink.com 1.10,2013-09-15 09:07:00,
2013-09-15 05:22:00,44.6,43.0,30.17,WNW,287,0.0,0.0,94,0.00,,,0.00,0,weatherlink.com 1.10,2013-09-15 09:22:00,
2013-09-15 05:37:00,44.7,43.0,30.17,WNW,287,0.0,0.0,94,0.00,,,0.00,0,weatherlink.com 1.10,2013-09-15 09:37:00,
2013-09-15 05:52:00,44.7,43.0,30.17,WNW,287,0.0,1.0,94,0.00,,,0.00,0,weatherlink.com 1.10,2013-09-15 09:52:00,
2013-09-15 06:07:00,44.8,43.0,30.18,WNW,287,0.0,0.0,94,0.00,,,0.00,0,weatherlink.com 1.10,2013-09-15 10:07:00,
2013-09-15 06:22:00,44.9,43.0,30.18,WNW,287,0.0,0.0,94,0.00,,,0.00,0,weatherlink.com 1.10,2013-09-15 10:22:00,
2013-09-15 06:37:00,44.9,43.0,30.19,WNW,287,0.0,0.0,94,0.00,,,0.00,5,weatherlink.com 1.10,2013-09-15 10:37:00,
2013-09-15 06:52:00,44.9,43.0,30.19,WNW,287,0.0,1.0,94,0.00,,,0.00,11,weatherlink.com 1.10,2013-09-15 10:52:00,
2013-09-15 07:08:00,45.0,43.0,30.20,WNW,287,0.0,0.0,94,0.00,,,0.00,14,weatherlink.com 1.10,2013-09-15 11:08:00,
2013-09-15 07:23:00,45.3,44.0,30.19,WNW,287,0.0,0.0,94,0.00,,,0.00,16,weatherlink.com 1.10,2013-09-15 11:23:00,
2013-09-15 07:38:00,46.0,44.0,30.20,WNW,287,0.0,1.0,94,0.00,,,0.00,21,weatherlink.com 1.10,2013-09-15 11:38:00,
2013-09-15 07:53:00,47.3,45.0,30.20,WNW,287,0.0,2.0,93,0.00,,,0.00,25,weatherlink.com 1.10,2013-09-15 11:53:00,
2013-09-15 08:08:00,48.8,46.0,30.21,WNW,287,0.0,3.0,91,0.00,,,0.00,33,weatherlink.com 1.10,2013-09-15 12:08:00,
2013-09-15 08:23:00,50.2,47.0,30.21,WNW,287,0.0,1.0,88,0.00,,,0.00,98,weatherlink.com 1.10,2013-09-15 12:23:00,
2013-09-15 08:38:00,51.8,48.0,30.21,WNW,287,2.0,4.0,85,0.00,,,0.00,37,weatherlink.com 1.10,2013-09-15 12:38:00,
2013-09-15 08:53:00,53.6,48.0,30.22,WNW,287,2.0,4.0,81,0.00,,,0.00,37,weatherlink.com 1.10,2013-09-15 12:53:00,
2013-09-15 09:08:00,55.2,48.0,30.21,WNW,287,0.0,2.0,78,0.00,,,0.00,35,weatherlink.com 1.10,2013-09-15 13:08:00,
2013-09-15 09:23:00,56.7,49.0,30.22,WNW,290,0.0,7.0,74,0.00,,,0.00,40,weatherlink.com 1.10,2013-09-15 13:23:00,
2013-09-15 09:38:00,58.0,49.0,30.22,WNW,284,0.0,5.0,72,0.00,,,0.00,40,weatherlink.com 1.10,2013-09-15 13:38:00,
2013-09-15 09:53:00,59.3,49.0,30.22,West,267,0.0,4.0,68,0.00,,,0.00,42,weatherlink.com 1.10,2013-09-15 13:53:00,
2013-09-15 10:08:00,60.5,49.0,30.22,WNW,290,0.0,4.0,67,0.00,,,0.00,181,weatherlink.com 1.10,2013-09-15 14:08:00,
2013-09-15 10:23:00,61.4,50.0,30.22,NW,312,2.0,9.0,66,0.00,,,0.00,580,weatherlink.com 1.10,2013-09-15 14:23:00,
2013-09-15 10:38:00,62.6,51.0,30.22,NW,308,1.0,11.0,65,0.00,,,0.00,652,weatherlink.com 1.10,2013-09-15 14:38:00,
2013-09-15 10:53:00,63.4,51.0,30.22,WNW,298,3.0,8.0,65,0.00,,,0.00,689,weatherlink.com 1.10,2013-09-15 14:53:00,
2013-09-15 11:08:00,64.4,51.0,30.21,SW,221,3.0,7.0,62,0.00,,,0.00,650,weatherlink.com 1.10,2013-09-15 15:08:00,
2013-09-15 11:23:00,64.9,51.0,30.21,NW,305,2.0,10.0,60,0.00,,,0.00,710,weatherlink.com 1.10,2013-09-15 15:23:00,
2013-09-15 11:38:00,65.2,52.0,30.20,WNW,291,4.0,10.0,62,0.00,,,0.00,765,weatherlink.com 1.10,2013-09-15 15:38:00,
2013-09-15 11:53:00,65.8,51.0,30.20,West,277,0.0,7.0,60,0.00,,,0.00,629,weatherlink.com 1.10,2013-09-15 15:53:00,
2013-09-15 12:09:00,66.6,52.0,30.20,NW,317,0.0,9.0,60,0.00,,,0.00,835,weatherlink.com 1.10,2013-09-15 16:09:00,
2013-09-15 12:24:00,67.6,51.0,30.20,West,267,0.0,9.0,56,0.00,,,0.00,795,weatherlink.com 1.10,2013-09-15 16:24:00,
2013-09-15 12:39:00,67.7,52.0,30.19,WNW,294,0.0,10.0,58,0.00,,,0.00,800,weatherlink.com 1.10,2013-09-15 16:39:00,
2013-09-15 12:54:00,68.6,52.0,30.19,WSW,257,3.0,11.0,56,0.00,,,0.00,777,weatherlink.com 1.10,2013-09-15 16:54:00,
2013-09-15 13:09:00,68.9,52.0,30.18,SSE,167,5.0,9.0,55,0.00,,,0.00,770,weatherlink.com 1.10,2013-09-15 17:09:00,
2013-09-15 13:24:00,69.2,52.0,30.17,NW,304,8.0,10.0,54,0.00,,,0.00,626,weatherlink.com 1.10,2013-09-15 17:24:00,
2013-09-15 13:39:00,69.9,50.0,30.17,WNW,294,0.0,8.0,50,0.00,,,0.00,814,weatherlink.com 1.10,2013-09-15 17:39:00,
2013-09-15 13:54:00,70.4,50.0,30.17,West,280,7.0,8.0,48,0.00,,,0.00,802,weatherlink.com 1.10,2013-09-15 17:54:00,
2013-09-15 14:09:00,71.2,50.0,30.16,WNW,288,0.0,7.0,48,0.00,,,0.00,775,weatherlink.com 1.10,2013-09-15 18:09:00,
2013-09-15 14:24:00,71.4,51.0,30.16,WSW,257,2.0,9.0,48,0.00,,,0.00,705,weatherlink.com 1.10,2013-09-15 18:24:00,
2013-09-15 14:39:00,72.1,49.0,30.15,South,172,5.0,8.0,44,0.00,,,0.00,531,weatherlink.com 1.10,2013-09-15 18:39:00,
2013-09-15 14:54:00,72.0,50.0,30.14,WNW,285,0.0,6.0,46,0.00,,,0.00,589,weatherlink.com 1.10,2013-09-15 18:54:00,
2013-09-15 15:09:00,72.0,49.0,30.13,WNW,292,4.0,9.0,45,0.00,,,0.00,413,weatherlink.com 1.10,2013-09-15 19:09:00,
2013-09-15 15:24:00,71.7,50.0,30.13,WNW,290,0.0,7.0,47,0.00,,,0.00,615,weatherlink.com 1.10,2013-09-15 19:24:00,
2013-09-15 15:39:00,72.9,50.0,30.12,WNW,282,4.0,11.0,44,0.00,,,0.00,207,weatherlink.com 1.10,2013-09-15 19:39:00,
2013-09-15 15:54:00,72.8,50.0,30.12,WNW,286,6.0,8.0,44,0.00,,,0.00,582,weatherlink.com 1.10,2013-09-15 19:54:00,
2013-09-15 16:09:00,73.5,48.0,30.11,SW,221,2.0,11.0,41,0.00,,,0.00,366,weatherlink.com 1.10,2013-09-15 20:09:00,
2013-09-15 16:24:00,73.5,50.0,30.10,West,275,0.0,10.0,43,0.00,,,0.00,399,weatherlink.com 1.10,2013-09-15 20:24:00,
2013-09-15 16:39:00,73.1,50.0,30.10,West,273,0.0,9.0,44,0.00,,,0.00,283,weatherlink.com 1.10,2013-09-15 20:39:00,
2013-09-15 16:54:00,73.3,51.0,30.10,WSW,258,2.0,6.0,46,0.00,,,0.00,302,weatherlink.com 1.10,2013-09-15 20:54:00,
2013-09-15 17:09:00,73.7,51.0,30.09,South,181,0.0,3.0,45,0.00,,,0.00,218,weatherlink.com 1.10,2013-09-15 21:09:00,
2013-09-15 17:24:00,73.2,51.0,30.09,SSE,166,0.0,5.0,45,0.00,,,0.00,121,weatherlink.com 1.10,2013-09-15 21:24:00,
2013-09-15 17:39:00,71.9,50.0,30.09,South,186,2.0,3.0,47,0.00,,,0.00,60,weatherlink.com 1.10,2013-09-15 21:39:00,
2013-09-15 17:54:00,71.4,51.0,30.09,SSW,205,0.0,1.0,49,0.00,,,0.00,162,weatherlink.com 1.10,2013-09-15 21:54:00,
2013-09-15 18:09:00,71.4,52.0,30.09,WSW,244,0.0,2.0,50,0.00,,,0.00,130,weatherlink.com 1.10,2013-09-15 22:09:00,
2013-09-15 18:24:00,71.3,52.0,30.09,WSW,252,0.0,3.0,50,0.00,,,0.00,72,weatherlink.com 1.10,2013-09-15 22:24:00,
2013-09-15 18:39:00,70.5,54.0,30.09,WSW,252,0.0,0.0,57,0.00,,,0.00,26,weatherlink.com 1.10,2013-09-15 22:39:00,
2013-09-15 18:54:00,68.2,53.0,30.08,WSW,252,0.0,0.0,59,0.00,,,0.00,11,weatherlink.com 1.10,2013-09-15 22:54:00,
2013-09-15 19:09:00,66.8,55.0,30.09,South,182,0.0,2.0,65,0.00,,,0.00,0,weatherlink.com 1.10,2013-09-15 23:09:00,
2013-09-15 19:24:00,65.8,56.0,30.09,South,182,0.0,0.0,70,0.00,,,0.00,0,weatherlink.com 1.10,2013-09-15 23:24:00,
2013-09-15 19:39:00,65.1,56.0,30.09,South,182,0.0,1.0,73,0.00,,,0.00,0,weatherlink.com 1.10,2013-09-15 23:39:00,
2013-09-15 19:54:00,64.5,56.0,30.10,South,182,1.0,2.0,75,0.00,,,0.00,0,weatherlink.com 1.10,2013-09-15 23:54:00,
2013-09-15 20:09:00,64.1,56.0,30.10,South,185,0.0,3.0,75,0.00,,,0.00,0,weatherlink.com 1.10,2013-09-16 00:09:00,
2013-09-15 20:24:00,63.7,55.0,30.10,South,171,1.0,7.0,74,0.00,,,0.00,0,weatherlink.com 1.10,2013-09-16 00:24:00,
2013-09-15 20:39:00,63.3,55.0,30.11,South,176,0.0,5.0,74,0.00,,,0.00,0,weatherlink.com 1.10,2013-09-16 00:39:00,
2013-09-15 20:54:00,63.0,55.0,30.11,South,171,5.0,6.0,74,0.00,,,0.00,0,weatherlink.com 1.10,2013-09-16 00:54:00,
2013-09-15 21:09:00,62.7,54.0,30.11,South,175,0.0,4.0,74,0.00,,,0.00,0,weatherlink.com 1.10,2013-09-16 01:09:00,
2013-09-15 21:24:00,62.2,54.0,30.11,South,187,0.0,2.0,75,0.00,,,0.00,0,weatherlink.com 1.10,2013-09-16 01:24:00,
2013-09-15 21:39:00,61.8,54.0,30.11,South,187,0.0,1.0,76,0.00,,,0.00,0,weatherlink.com 1.10,2013-09-16 01:39:00,
2013-09-15 21:54:00,61.3,54.0,30.11,South,187,0.0,2.0,77,0.00,,,0.00,0,weatherlink.com 1.10,2013-09-16 01:54:00,
2013-09-15 22:09:00,60.9,54.0,30.11,South,187,0.0,1.0,78,0.00,,,0.00,0,weatherlink.com 1.10,2013-09-16 02:09:00,
2013-09-15 22:24:00,60.6,54.0,30.10,South,189,0.0,2.0,78,0.00,,,0.00,0,weatherlink.com 1.10,2013-09-16 02:24:00,
2013-09-15 22:40:00,60.7,54.0,30.11,SSE,167,0.0,2.0,79,0.00,,,0.00,0,weatherlink.com 1.10,2013-09-16 02:40:00,
2013-09-15 22:55:00,60.4,54.0,30.11,SSE,167,0.0,0.0,79,0.00,,,0.00,0,weatherlink.com 1.10,2013-09-16 02:55:00,
2013-09-15 23:10:00,59.9,54.0,30.10,SSE,167,0.0,0.0,81,0.00,,,0.00,0,weatherlink.com 1.10,2013-09-16 03:10:00,
2013-09-15 23:25:00,59.4,54.0,30.10,SSE,167,0.0,0.0,82,0.00,,,0.00,0,weatherlink.com 1.10,2013-09-16 03:25:00,
2013-09-15 23:40:00,59.0,54.0,30.10,SSE,167,0.0,0.0,84,0.00,,,0.00,0,weatherlink.com 1.10,2013-09-16 03:40:00,
2013-09-15 23:55:00,59.0,54.0,30.09,SSE,167,0.0,1.0,84,0.00,,,0.00,0,weatherlink.com 1.10,2013-09-16 03:55:00,